createdAt,value
2023-07-04T00:00:32.556Z,1.00
2023-07-04T00:01:35.623Z,1.00
2023-07-04T00:02:38.636Z,1.83
2023-07-04T00:03:44.574Z,2.00
2023-07-04T00:04:49.355Z,2.00
2023-07-04T00:05:54.716Z,2.00
2023-07-04T00:06:57.717Z,2.00
2023-07-04T00:08:00.704Z,2.00
2023-07-04T00:09:06.000Z,2.00
2023-07-04T00:10:10.041Z,2.00
2023-07-04T00:11:13.924Z,2.00
2023-07-04T00:12:16.975Z,2.00
2023-07-04T00:13:20.984Z,2.00
2023-07-04T00:14:24.049Z,2.00
2023-07-04T00:15:27.052Z,2.00
2023-07-04T00:16:30.264Z,2.00
2023-07-04T00:17:33.270Z,2.00
2023-07-04T00:18:37.969Z,2.00
2023-07-04T00:19:41.046Z,2.00
2023-07-04T00:20:44.047Z,2.00
2023-07-04T00:21:47.027Z,2.00
2023-07-04T00:22:50.012Z,2.00
2023-07-04T00:23:55.695Z,2.00
2023-07-04T00:24:58.722Z,2.00
2023-07-04T00:26:05.876Z,2.00
2023-07-04T00:27:08.848Z,2.00
2023-07-04T00:28:11.826Z,2.00
2023-07-04T00:29:14.828Z,2.00
2023-07-04T00:30:17.809Z,2.00
2023-07-04T00:31:25.015Z,2.00
2023-07-04T00:32:28.843Z,2.00
2023-07-04T00:33:34.853Z,2.00
2023-07-04T00:34:37.863Z,2.00
2023-07-04T00:35:41.843Z,2.00
2023-07-04T00:36:44.832Z,2.00
2023-07-04T00:37:47.826Z,2.00
2023-07-04T00:38:57.731Z,2.00
2023-07-04T00:40:07.356Z,2.00
2023-07-04T00:41:14.925Z,2.00
2023-07-04T00:42:17.906Z,2.00
2023-07-04T00:43:20.874Z,2.00
2023-07-04T00:44:25.749Z,2.00
2023-07-04T00:45:28.822Z,2.00
2023-07-04T00:47:12.043Z,2.00
2023-07-04T00:48:17.053Z,2.00
2023-07-04T00:49:27.809Z,2.00
2023-07-04T00:50:36.205Z,2.00
2023-07-04T00:51:39.176Z,2.00
2023-07-04T00:52:43.228Z,2.00
2023-07-04T00:53:46.789Z,2.50
2023-07-04T00:54:54.187Z,3.00
2023-07-04T00:55:59.773Z,3.00
2023-07-04T00:57:07.859Z,3.00
2023-07-04T00:58:11.664Z,3.00
2023-07-04T00:59:15.114Z,3.00
2023-07-04T01:00:26.362Z,3.00
2023-07-04T01:01:29.454Z,3.00
2023-07-04T01:02:35.461Z,3.00
2023-07-04T01:03:38.808Z,3.00
2023-07-04T01:04:43.113Z,3.00
2023-07-04T01:06:36.779Z,3.00
2023-07-04T01:08:04.317Z,3.00
2023-07-04T01:09:09.419Z,3.00
2023-07-04T01:10:45.266Z,3.00
2023-07-04T01:11:50.226Z,3.00
2023-07-04T01:12:53.571Z,3.00
2023-07-04T01:13:57.785Z,3.00
2023-07-04T01:15:01.679Z,3.00
2023-07-04T01:16:10.444Z,3.00
2023-07-04T01:17:13.461Z,3.00
2023-07-04T01:18:16.446Z,3.00
2023-07-04T01:19:29.477Z,3.00
2023-07-04T01:20:33.719Z,3.00
2023-07-04T01:21:38.176Z,3.00
2023-07-04T01:23:02.941Z,3.00
2023-07-04T01:24:20.906Z,3.00
2023-07-04T01:25:31.190Z,3.00
2023-07-04T01:26:41.606Z,2.00
2023-07-04T01:27:45.776Z,2.00
2023-07-04T01:28:52.827Z,2.00
2023-07-04T01:29:56.407Z,2.00
2023-07-04T01:30:59.486Z,2.00
2023-07-04T01:32:02.818Z,2.00
2023-07-04T01:33:07.477Z,2.00
2023-07-04T01:34:12.139Z,2.00
2023-07-04T01:35:15.646Z,2.00
2023-07-04T01:36:23.709Z,2.00
2023-07-04T01:37:30.858Z,2.00
2023-07-04T01:38:33.984Z,2.00
2023-07-04T01:39:36.979Z,2.00
2023-07-04T01:40:39.962Z,2.00
2023-07-04T01:41:46.803Z,2.00
2023-07-04T01:42:50.264Z,2.00
2023-07-04T01:44:11.072Z,2.00
2023-07-04T01:45:14.107Z,2.00
2023-07-04T01:46:17.730Z,2.00
2023-07-04T01:47:20.749Z,2.00
2023-07-04T01:48:23.736Z,2.00
2023-07-04T01:49:26.817Z,2.00
2023-07-04T01:50:29.894Z,2.00
2023-07-04T01:51:37.006Z,2.00
2023-07-04T01:52:42.333Z,2.00
2023-07-04T01:53:45.539Z,2.00
2023-07-04T01:54:48.720Z,2.00
2023-07-04T01:55:51.702Z,2.00
2023-07-04T01:56:54.769Z,2.00
2023-07-04T01:57:59.125Z,2.00
2023-07-04T01:59:02.680Z,2.00
2023-07-04T02:00:14.411Z,2.00
2023-07-04T02:01:17.751Z,2.00
2023-07-04T02:02:20.958Z,2.00
2023-07-04T02:03:24.074Z,2.00
2023-07-04T02:04:27.204Z,2.00
2023-07-04T02:05:30.185Z,2.00
2023-07-04T02:06:33.171Z,2.00
2023-07-04T02:07:36.248Z,2.00
2023-07-04T02:08:39.208Z,2.00
2023-07-04T02:09:44.357Z,2.00
2023-07-04T02:10:47.402Z,2.00
2023-07-04T02:11:50.360Z,2.00
2023-07-04T02:12:53.441Z,2.00
2023-07-04T02:13:57.345Z,2.00
2023-07-04T02:15:00.545Z,2.00
2023-07-04T02:16:03.609Z,2.00
2023-07-04T02:17:06.841Z,2.00
2023-07-04T02:18:09.823Z,2.00
2023-07-04T02:19:12.994Z,2.00
2023-07-04T02:20:17.737Z,2.00
2023-07-04T02:21:20.847Z,2.00
2023-07-04T02:22:23.820Z,2.00
2023-07-04T02:23:26.903Z,2.00
2023-07-04T02:24:29.890Z,2.00
2023-07-04T02:25:32.964Z,2.00
2023-07-04T02:26:36.111Z,2.00
2023-07-04T02:27:39.161Z,2.00
2023-07-04T02:28:42.172Z,2.00
2023-07-04T02:29:50.954Z,2.00
2023-07-04T02:30:59.510Z,2.00
2023-07-04T02:32:02.873Z,2.00
2023-07-04T02:33:06.469Z,2.00
2023-07-04T02:34:09.492Z,2.00
2023-07-04T02:35:15.468Z,2.00
2023-07-04T02:36:19.215Z,2.00
2023-07-04T02:37:22.208Z,2.00
2023-07-04T02:38:25.215Z,2.00
2023-07-04T02:39:30.828Z,2.00
2023-07-04T02:40:33.872Z,2.00
2023-07-04T02:41:36.871Z,2.00
2023-07-04T02:42:39.866Z,2.00
2023-07-04T02:43:42.870Z,2.00
2023-07-04T02:44:45.853Z,2.00
2023-07-04T02:45:48.930Z,2.00
2023-07-04T02:46:51.974Z,2.00
2023-07-04T02:47:55.071Z,2.00
2023-07-04T02:48:58.086Z,2.00
2023-07-04T02:50:01.085Z,2.00
2023-07-04T02:51:04.230Z,2.00
2023-07-04T02:52:07.719Z,2.00
2023-07-04T02:53:10.733Z,2.00
2023-07-04T02:54:13.789Z,2.00
2023-07-04T02:55:19.052Z,2.00
2023-07-04T02:56:22.040Z,2.00
2023-07-04T02:57:25.315Z,2.00
2023-07-04T02:58:28.342Z,2.00
2023-07-04T02:59:31.329Z,2.00
2023-07-04T03:00:35.346Z,2.00
2023-07-04T03:01:38.428Z,2.00
2023-07-04T03:02:42.095Z,2.00
2023-07-04T03:03:45.267Z,2.00
2023-07-04T03:04:52.632Z,2.00
2023-07-04T03:05:57.233Z,2.00
2023-07-04T03:07:00.229Z,2.00
2023-07-04T03:08:04.619Z,2.00
2023-07-04T03:09:07.615Z,2.00
2023-07-04T03:10:11.475Z,2.00
2023-07-04T03:11:14.479Z,2.00
2023-07-04T03:12:17.474Z,2.00
2023-07-04T03:13:20.807Z,2.00
2023-07-04T03:14:26.318Z,2.00
2023-07-04T03:15:29.289Z,2.00
2023-07-04T03:16:32.326Z,2.00
2023-07-04T03:17:35.407Z,2.00
2023-07-04T03:18:38.411Z,2.00
2023-07-04T03:19:41.401Z,2.00
2023-07-04T03:20:44.371Z,2.00
2023-07-04T03:21:47.349Z,2.00
2023-07-04T03:22:50.526Z,2.00
2023-07-04T03:23:53.567Z,2.00
2023-07-04T03:24:56.564Z,2.00
2023-07-04T03:25:59.548Z,2.00
2023-07-04T03:27:02.545Z,2.00
2023-07-04T03:28:05.615Z,2.00
2023-07-04T03:29:08.882Z,2.00
2023-07-04T03:30:13.359Z,2.00
2023-07-04T03:31:16.363Z,2.00
2023-07-04T03:32:19.381Z,2.00
2023-07-04T03:33:22.382Z,2.00
2023-07-04T03:34:25.372Z,2.00
2023-07-04T03:35:28.375Z,2.00
2023-07-04T03:36:31.385Z,2.00
2023-07-04T03:37:36.780Z,2.00
2023-07-04T03:38:39.755Z,2.00
2023-07-04T03:39:42.867Z,2.00
2023-07-04T03:40:46.216Z,2.00
2023-07-04T03:41:49.237Z,2.00
2023-07-04T03:42:52.271Z,2.00
2023-07-04T03:43:55.260Z,2.00
2023-07-04T03:44:58.236Z,2.00
2023-07-04T03:46:01.230Z,2.00
2023-07-04T03:47:04.537Z,2.00
2023-07-04T03:48:07.666Z,2.00
2023-07-04T03:49:10.733Z,2.00
2023-07-04T03:50:14.492Z,2.00
2023-07-04T03:51:17.827Z,2.00
2023-07-04T03:52:20.813Z,2.00
2023-07-04T03:53:23.796Z,2.00
2023-07-04T03:54:26.789Z,2.00
2023-07-04T03:55:29.905Z,2.00
2023-07-04T03:56:32.900Z,2.00
2023-07-04T03:57:35.959Z,2.00
2023-07-04T03:58:38.939Z,2.00
2023-07-04T03:59:42.096Z,2.00
2023-07-04T04:00:48.933Z,2.00
2023-07-04T04:01:51.952Z,2.00
2023-07-04T04:02:55.327Z,2.00
2023-07-04T04:03:58.558Z,2.00
2023-07-04T04:05:01.775Z,2.00
2023-07-04T04:06:07.668Z,2.00
2023-07-04T04:07:12.298Z,2.00
2023-07-04T04:08:15.288Z,2.00
2023-07-04T04:09:18.278Z,2.00
2023-07-04T04:10:21.772Z,2.00
2023-07-04T04:11:24.902Z,2.00
2023-07-04T04:12:27.881Z,2.00
2023-07-04T04:13:30.997Z,2.00
2023-07-04T04:14:35.622Z,2.00
2023-07-04T04:15:38.610Z,2.00
2023-07-04T04:16:41.644Z,2.00
2023-07-04T04:17:44.717Z,2.00
2023-07-04T04:18:47.802Z,2.00
2023-07-04T04:19:50.797Z,2.00
2023-07-04T04:20:54.112Z,2.00
2023-07-04T04:21:57.551Z,2.00
2023-07-04T04:23:01.298Z,2.00
2023-07-04T04:24:04.287Z,2.00
2023-07-04T04:25:07.940Z,2.00
2023-07-04T04:26:15.986Z,2.00
2023-07-04T04:27:20.245Z,2.00
2023-07-04T04:28:23.233Z,2.00
2023-07-04T04:29:26.243Z,2.00
2023-07-04T04:30:29.329Z,2.00
2023-07-04T04:31:38.333Z,2.00
2023-07-04T04:32:42.790Z,2.00
2023-07-04T04:33:45.846Z,2.00
2023-07-04T04:34:49.115Z,2.00
2023-07-04T04:35:52.272Z,2.00
2023-07-04T04:36:55.254Z,2.00
2023-07-04T04:37:58.799Z,2.00
2023-07-04T04:39:03.386Z,2.00
2023-07-04T04:40:08.064Z,2.00
2023-07-04T04:41:11.297Z,2.00
2023-07-04T04:42:16.970Z,2.00
2023-07-04T04:43:19.960Z,2.00
2023-07-04T04:44:23.035Z,2.00
2023-07-04T04:45:26.130Z,2.00
2023-07-04T04:46:29.399Z,2.00
2023-07-04T04:47:34.563Z,2.00
2023-07-04T04:48:38.105Z,2.00
2023-07-04T04:49:41.445Z,2.00
2023-07-04T04:50:47.546Z,2.00
2023-07-04T04:51:53.332Z,2.00
2023-07-04T04:52:59.313Z,2.00
2023-07-04T04:54:03.601Z,2.00
2023-07-04T04:55:08.665Z,2.00
2023-07-04T04:56:13.680Z,2.00
2023-07-04T04:57:17.378Z,2.00
2023-07-04T04:58:20.727Z,2.00
2023-07-04T04:59:23.740Z,2.00
2023-07-04T05:00:26.747Z,2.00
2023-07-04T05:01:29.735Z,2.00
2023-07-04T05:02:33.235Z,2.00
2023-07-04T05:03:36.281Z,2.00
2023-07-04T05:04:39.449Z,2.00
2023-07-04T05:05:42.433Z,2.00
2023-07-04T05:06:45.411Z,2.00
2023-07-04T05:07:50.805Z,2.00
2023-07-04T05:08:54.528Z,2.00
2023-07-04T05:10:01.984Z,2.00
2023-07-04T05:11:09.472Z,2.00
2023-07-04T05:12:12.450Z,2.00
2023-07-04T05:13:15.423Z,2.00
2023-07-04T05:14:18.407Z,2.00
2023-07-04T05:15:21.387Z,2.00
2023-07-04T05:16:24.416Z,2.00
2023-07-04T05:17:28.015Z,2.00
2023-07-04T05:18:33.677Z,2.00
2023-07-04T05:19:36.781Z,2.00
2023-07-04T05:20:39.772Z,2.00
2023-07-04T05:21:42.754Z,2.00
2023-07-04T05:22:46.545Z,2.00
2023-07-04T05:23:51.307Z,2.00
2023-07-04T05:24:54.306Z,2.00
2023-07-04T05:26:06.519Z,2.00
2023-07-04T05:27:09.835Z,2.00
2023-07-04T05:28:12.819Z,2.00
2023-07-04T05:29:15.793Z,2.00
2023-07-04T05:30:20.864Z,2.00
2023-07-04T05:31:30.655Z,2.00
2023-07-04T05:32:33.726Z,2.00
2023-07-04T05:33:37.582Z,2.00
2023-07-04T05:34:40.562Z,2.00
2023-07-04T05:35:43.544Z,2.00
2023-07-04T05:36:46.526Z,2.00
2023-07-04T05:37:49.516Z,2.00
2023-07-04T05:38:54.794Z,2.00
2023-07-04T05:39:58.289Z,2.00
2023-07-04T05:41:01.875Z,2.00
2023-07-04T05:42:05.280Z,2.00
2023-07-04T05:43:08.361Z,2.00
2023-07-04T05:44:13.000Z,2.00
2023-07-04T05:45:16.054Z,2.00
2023-07-04T05:46:19.793Z,2.00
2023-07-04T05:47:22.830Z,2.00
2023-07-04T05:48:25.837Z,2.00
2023-07-04T05:49:28.826Z,2.00
2023-07-04T05:50:31.566Z,2.00
2023-07-04T05:51:34.404Z,2.00
2023-07-04T05:52:37.382Z,2.00
2023-07-04T05:53:42.809Z,2.00
2023-07-04T05:54:49.561Z,2.00
2023-07-04T05:55:53.460Z,2.00
2023-07-04T05:56:59.281Z,2.00
2023-07-04T05:58:02.270Z,2.00
2023-07-04T05:59:05.273Z,2.00
2023-07-04T06:00:10.671Z,2.00
2023-07-04T06:01:42.204Z,2.00
2023-07-04T06:02:49.753Z,2.00
2023-07-04T06:03:54.416Z,2.00
2023-07-04T06:04:57.587Z,2.00
2023-07-04T06:06:02.940Z,2.00
2023-07-04T06:07:06.516Z,2.00
2023-07-04T06:08:09.849Z,2.00
2023-07-04T06:09:16.223Z,2.00
2023-07-04T06:10:19.273Z,2.00
2023-07-04T06:11:25.792Z,2.00
2023-07-04T06:12:28.778Z,2.00
2023-07-04T06:13:32.712Z,2.00
2023-07-04T06:14:35.834Z,2.00
2023-07-04T06:15:42.285Z,2.00
2023-07-04T06:16:45.419Z,2.00
2023-07-04T06:17:48.492Z,2.00
2023-07-04T06:18:52.096Z,2.00
2023-07-04T06:19:55.100Z,2.00
2023-07-04T06:21:18.594Z,2.00
2023-07-04T06:22:23.391Z,2.00
2023-07-04T06:23:26.406Z,2.00
2023-07-04T06:24:29.415Z,2.00
2023-07-04T06:25:32.416Z,2.00
2023-07-04T06:26:35.440Z,2.00
2023-07-04T06:27:38.641Z,2.00
2023-07-04T06:28:43.214Z,2.00
2023-07-04T06:29:48.931Z,2.00
2023-07-04T06:30:52.157Z,2.00
2023-07-04T06:31:55.325Z,2.00
2023-07-04T06:32:58.735Z,2.00
2023-07-04T06:34:02.146Z,2.00
2023-07-04T06:35:06.142Z,2.00
2023-07-04T06:36:15.187Z,2.00
2023-07-04T06:37:19.078Z,2.00
2023-07-04T06:38:23.234Z,2.00
2023-07-04T06:39:26.228Z,2.00
2023-07-04T06:40:29.249Z,2.00
2023-07-04T06:41:32.417Z,2.00
2023-07-04T06:42:35.418Z,2.00
2023-07-04T06:43:47.293Z,2.00
2023-07-04T06:44:50.333Z,2.00
2023-07-04T06:45:53.696Z,2.00
2023-07-04T06:46:56.957Z,2.00
2023-07-04T06:48:00.741Z,2.00
2023-07-04T06:49:03.734Z,2.00
2023-07-04T06:50:07.865Z,2.00
2023-07-04T06:51:13.597Z,2.00
2023-07-04T06:52:16.721Z,2.00
2023-07-04T06:53:20.412Z,2.00
2023-07-04T06:54:24.441Z,2.00
2023-07-04T06:55:27.440Z,2.00
2023-07-04T06:56:32.386Z,2.00
2023-07-04T06:57:35.509Z,2.00
2023-07-04T06:58:56.260Z,2.00
2023-07-04T06:59:59.506Z,2.00
2023-07-04T07:01:06.236Z,2.00
2023-07-04T07:02:09.272Z,2.00
2023-07-04T07:03:12.314Z,2.00
2023-07-04T07:04:17.300Z,2.00
2023-07-04T07:05:20.310Z,2.00
2023-07-04T07:06:23.600Z,2.00
2023-07-04T07:07:26.976Z,2.00
2023-07-04T07:08:30.563Z,2.00
2023-07-04T07:09:38.157Z,2.00
2023-07-04T07:10:41.161Z,2.00
2023-07-04T07:11:44.143Z,2.00
2023-07-04T07:12:47.125Z,2.83
2023-07-04T07:13:51.597Z,3.00
2023-07-04T07:14:54.673Z,3.00
2023-07-04T07:16:17.747Z,3.00
2023-07-04T07:17:20.874Z,3.00
2023-07-04T07:18:23.982Z,3.00
2023-07-04T07:19:27.392Z,3.00
2023-07-04T07:20:30.521Z,3.00
2023-07-04T07:21:33.546Z,3.00
2023-07-04T07:22:36.554Z,3.00
2023-07-04T07:23:41.670Z,3.00
2023-07-04T07:24:45.709Z,3.00
2023-07-04T07:25:58.681Z,3.00
2023-07-04T07:27:02.137Z,3.00
2023-07-04T07:28:06.114Z,3.00
2023-07-04T07:29:10.168Z,3.00
2023-07-04T07:30:13.791Z,3.00
2023-07-04T07:31:32.573Z,3.00
2023-07-04T07:32:37.213Z,3.00
2023-07-04T07:33:42.477Z,3.00
2023-07-04T07:34:45.479Z,3.00
2023-07-04T07:35:51.110Z,3.00
2023-07-04T07:36:54.262Z,3.00
2023-07-04T07:37:57.253Z,3.00
2023-07-04T07:39:04.093Z,3.00
2023-07-04T07:40:08.034Z,3.00
2023-07-04T07:41:11.413Z,3.00
2023-07-04T07:42:14.501Z,3.00
2023-07-04T07:43:17.503Z,3.00
2023-07-04T07:44:20.891Z,3.00
2023-07-04T07:45:24.372Z,3.00
2023-07-04T07:46:28.067Z,3.00
2023-07-04T07:47:31.110Z,3.00
2023-07-04T07:48:34.265Z,3.00
2023-07-04T07:49:38.436Z,3.00
2023-07-04T07:50:43.067Z,3.00
2023-07-04T07:51:46.514Z,3.00
2023-07-04T07:52:49.488Z,3.00
2023-07-04T07:53:54.676Z,3.00
2023-07-04T07:54:57.686Z,3.00
2023-07-04T07:56:00.759Z,3.00
2023-07-04T07:57:03.845Z,3.00
2023-07-04T07:58:06.975Z,3.00
2023-07-04T07:59:10.058Z,3.00
2023-07-04T08:00:13.988Z,3.00
2023-07-04T08:01:20.203Z,3.00
2023-07-04T08:02:23.417Z,3.00
2023-07-04T08:03:28.174Z,3.00
2023-07-04T08:04:31.324Z,3.00
2023-07-04T08:05:41.053Z,3.00
2023-07-04T08:06:46.682Z,3.00
2023-07-04T08:07:49.678Z,3.00
2023-07-04T08:08:54.552Z,3.00
2023-07-04T08:09:57.872Z,3.00
2023-07-04T08:11:00.901Z,3.00
2023-07-04T08:12:05.677Z,3.00
2023-07-04T08:13:11.539Z,3.00
2023-07-04T08:14:15.595Z,3.00
2023-07-04T08:15:18.673Z,3.00
2023-07-04T08:16:26.771Z,3.00
2023-07-04T08:17:29.846Z,3.00
2023-07-04T08:18:32.848Z,3.00
2023-07-04T08:19:35.821Z,3.00
2023-07-04T08:20:38.933Z,3.00
2023-07-04T08:21:41.925Z,3.00
2023-07-04T08:22:44.917Z,3.00
2023-07-04T08:23:48.963Z,3.00
2023-07-04T08:24:51.954Z,3.00
2023-07-04T08:25:54.988Z,3.00
2023-07-04T08:26:59.741Z,3.00
2023-07-04T08:28:02.745Z,3.00
2023-07-04T08:29:08.060Z,3.00
2023-07-04T08:30:11.381Z,3.00
2023-07-04T08:31:16.761Z,3.00
2023-07-04T08:32:19.943Z,3.00
2023-07-04T08:33:23.005Z,3.00
2023-07-04T08:34:26.299Z,3.00
2023-07-04T08:35:29.295Z,3.00
2023-07-04T08:36:33.963Z,3.00
2023-07-04T08:37:36.972Z,3.00
2023-07-04T08:38:40.250Z,3.00
2023-07-04T08:39:47.234Z,3.00
2023-07-04T08:40:51.550Z,3.00
2023-07-04T08:42:03.803Z,3.00
2023-07-04T08:43:07.515Z,3.00
2023-07-04T08:44:33.602Z,3.00
2023-07-04T08:45:36.998Z,3.00
2023-07-04T08:46:50.704Z,3.00
2023-07-04T08:47:56.870Z,3.00
2023-07-04T08:49:00.758Z,3.00
2023-07-04T08:50:13.944Z,3.00
2023-07-04T08:51:35.541Z,3.00
2023-07-04T08:52:55.556Z,3.00
2023-07-04T08:54:04.422Z,3.00
2023-07-04T08:55:14.726Z,3.00
2023-07-04T08:56:32.805Z,3.00
2023-07-04T08:57:53.730Z,3.00
2023-07-04T08:59:22.993Z,3.00
2023-07-04T09:00:38.486Z,3.00
2023-07-04T09:01:55.006Z,3.00
2023-07-04T09:03:34.949Z,3.00
2023-07-04T09:04:53.409Z,3.00
2023-07-04T09:06:31.900Z,3.00
2023-07-04T09:08:14.970Z,3.00
2023-07-04T09:09:23.955Z,3.00
2023-07-04T09:10:51.419Z,3.00
2023-07-04T09:11:55.017Z,3.00
2023-07-04T09:12:58.090Z,3.00
2023-07-04T09:14:09.727Z,3.00
2023-07-04T09:15:26.028Z,3.00
2023-07-04T09:16:45.177Z,3.00
2023-07-04T09:18:21.256Z,3.00
2023-07-04T09:19:25.629Z,3.00
2023-07-04T09:20:32.994Z,3.00
2023-07-04T09:21:38.121Z,3.00
2023-07-04T09:22:41.191Z,3.00
2023-07-04T09:23:48.467Z,3.00
2023-07-04T09:24:51.692Z,3.00
2023-07-04T09:25:57.607Z,3.00
2023-07-04T09:27:01.895Z,3.00
2023-07-04T09:28:06.347Z,3.00
2023-07-04T09:29:09.680Z,3.00
2023-07-04T09:30:14.159Z,3.00
2023-07-04T09:31:35.025Z,3.00
2023-07-04T09:32:38.204Z,3.00
2023-07-04T09:33:42.658Z,3.00
2023-07-04T09:34:51.493Z,3.00
2023-07-04T09:35:58.022Z,3.00
2023-07-04T09:37:17.341Z,3.00
2023-07-04T09:38:20.377Z,3.00
2023-07-04T09:39:23.641Z,3.00
2023-07-04T09:40:41.946Z,3.00
2023-07-04T09:42:13.253Z,3.00
2023-07-04T09:43:33.701Z,3.00
2023-07-04T09:44:38.488Z,3.00
2023-07-04T09:45:42.121Z,3.00
2023-07-04T09:46:53.364Z,3.00
2023-07-04T09:47:56.373Z,3.00
2023-07-04T09:49:37.388Z,3.00
2023-07-04T09:50:40.373Z,3.00
2023-07-04T09:51:43.419Z,3.00
2023-07-04T09:52:46.394Z,3.00
2023-07-04T09:53:49.582Z,3.00
2023-07-04T09:55:18.356Z,3.00
2023-07-04T09:56:28.171Z,3.00
2023-07-04T09:57:31.372Z,3.00
2023-07-04T09:58:35.621Z,3.00
2023-07-04T09:59:38.934Z,3.00
2023-07-04T10:00:42.104Z,3.00
2023-07-04T10:01:54.759Z,3.00
2023-07-04T10:03:06.207Z,3.00
2023-07-04T10:04:12.533Z,3.00
2023-07-04T10:05:27.004Z,3.00
2023-07-04T10:06:34.696Z,3.00
2023-07-04T10:07:38.917Z,3.00
2023-07-04T10:08:54.960Z,3.00
2023-07-04T10:10:04.943Z,3.00
2023-07-04T10:11:08.124Z,3.00
2023-07-04T10:12:14.973Z,3.00
2023-07-04T10:13:23.791Z,3.00
2023-07-04T10:14:38.741Z,3.00
2023-07-04T10:15:45.408Z,3.00
2023-07-04T10:16:52.311Z,3.00
2023-07-04T10:17:55.405Z,3.00
2023-07-04T10:19:20.109Z,3.00
2023-07-04T10:20:23.209Z,3.00
2023-07-04T10:21:26.274Z,3.00
2023-07-04T10:22:42.320Z,3.00
2023-07-04T10:23:47.170Z,3.00
2023-07-04T10:24:51.237Z,3.00
2023-07-04T10:25:57.342Z,3.00
2023-07-04T10:27:06.360Z,3.00
2023-07-04T10:28:18.539Z,3.00
2023-07-04T10:29:48.034Z,3.00
2023-07-04T10:31:01.087Z,3.00
2023-07-04T10:32:14.791Z,3.00
2023-07-04T10:33:29.794Z,3.00
2023-07-04T10:34:36.208Z,3.00
2023-07-04T10:35:46.739Z,3.00
2023-07-04T10:36:52.119Z,3.00
2023-07-04T10:38:35.268Z,3.00
2023-07-04T10:39:39.838Z,2.83
2023-07-04T10:40:43.834Z,2.00
2023-07-04T10:41:57.105Z,2.00
2023-07-04T10:43:12.051Z,2.00
2023-07-04T10:44:22.628Z,2.00
2023-07-04T10:45:28.355Z,2.00
2023-07-04T10:46:42.723Z,2.00
2023-07-04T10:47:49.457Z,2.00
2023-07-04T10:49:03.495Z,2.00
2023-07-04T10:50:33.927Z,2.00
2023-07-04T10:51:42.400Z,2.00
2023-07-04T10:52:50.009Z,2.00
2023-07-04T10:53:53.492Z,2.00
2023-07-04T10:54:56.544Z,2.00
2023-07-04T10:56:16.354Z,2.00
2023-07-04T10:57:48.688Z,2.00
2023-07-04T10:59:04.292Z,2.00
2023-07-04T11:00:25.066Z,2.00
2023-07-04T11:01:36.810Z,2.00
2023-07-04T11:02:52.868Z,2.00
2023-07-04T11:04:11.344Z,2.00
2023-07-04T11:05:41.480Z,2.00
2023-07-04T11:06:57.125Z,2.00
2023-07-04T11:08:01.224Z,2.00
2023-07-04T11:09:07.008Z,2.00
2023-07-04T11:10:14.656Z,2.00
2023-07-04T11:11:30.726Z,2.00
2023-07-04T11:12:38.707Z,2.17
2023-07-04T11:13:50.290Z,2.00
2023-07-04T11:15:04.046Z,2.00
2023-07-04T11:16:09.136Z,2.00
2023-07-04T11:17:18.103Z,2.00
2023-07-04T11:18:27.406Z,2.33
2023-07-04T11:19:35.436Z,3.00
2023-07-04T11:20:41.650Z,3.00
2023-07-04T11:22:06.860Z,3.00
2023-07-04T11:23:23.285Z,3.00
2023-07-04T11:24:26.850Z,3.00
2023-07-04T11:25:50.490Z,3.00
2023-07-04T11:27:36.363Z,3.00
2023-07-04T11:28:39.432Z,3.00
2023-07-04T11:29:58.739Z,2.00
2023-07-04T11:31:32.295Z,2.00
2023-07-04T11:32:42.151Z,2.00
2023-07-04T11:33:53.941Z,2.00
2023-07-04T11:35:17.005Z,2.00
2023-07-04T11:36:54.428Z,2.00
2023-07-04T11:38:16.734Z,2.00
2023-07-04T11:39:31.496Z,2.00
2023-07-04T11:40:47.234Z,2.00
2023-07-04T11:41:51.133Z,2.00
2023-07-04T11:43:00.450Z,2.00
2023-07-04T11:44:32.338Z,2.00
2023-07-04T11:45:40.919Z,2.00
2023-07-04T11:46:45.321Z,2.00
2023-07-04T11:48:09.826Z,2.00
2023-07-04T11:49:21.876Z,2.00
2023-07-04T11:50:42.246Z,2.00
2023-07-04T11:51:46.285Z,2.00
2023-07-04T11:53:00.463Z,2.00
2023-07-04T11:54:08.463Z,2.00
2023-07-04T11:55:18.108Z,2.00
2023-07-04T11:56:28.097Z,2.00
2023-07-04T11:58:18.187Z,2.00
2023-07-04T11:59:22.728Z,2.00
2023-07-04T12:00:45.645Z,2.00
2023-07-04T12:01:58.132Z,2.00
2023-07-04T12:05:40.343Z,1.00
2023-07-04T12:07:05.242Z,1.50
2023-07-04T12:08:32.532Z,5.67
2023-07-04T12:10:27.041Z,12.17
2023-07-04T12:11:44.254Z,15.83
2023-07-04T12:12:58.884Z,15.50
2023-07-04T12:14:02.108Z,14.67
2023-07-04T12:15:15.183Z,14.00
2023-07-04T12:16:23.379Z,13.17
2023-07-04T12:17:26.405Z,12.33
2023-07-04T12:18:35.481Z,11.50
2023-07-04T12:19:38.490Z,10.33
2023-07-04T12:20:42.070Z,9.33
2023-07-04T12:21:48.811Z,8.33
2023-07-04T12:22:55.054Z,7.17
2023-07-04T12:23:58.036Z,6.33
2023-07-04T12:25:23.397Z,5.83
2023-07-04T12:26:31.767Z,5.00
2023-07-04T12:27:34.777Z,4.33
2023-07-04T12:28:38.040Z,4.00
2023-07-04T12:31:41.431Z,3.00
2023-07-04T12:32:25.876Z,3.00
2023-07-04T12:33:32.328Z,3.00
2023-07-04T12:35:11.150Z,2.67
2023-07-04T12:36:10.981Z,2.00
2023-07-04T12:37:20.841Z,2.00
2023-07-04T12:38:28.377Z,2.00
2023-07-04T12:39:31.673Z,2.00
2023-07-04T12:40:35.509Z,2.00
2023-07-04T12:41:41.430Z,2.00
2023-07-04T12:42:46.128Z,2.00
2023-07-04T12:45:17.184Z,2.00
2023-07-04T12:47:36.960Z,1.00
2023-07-04T12:49:48.545Z,1.00
2023-07-04T12:50:54.480Z,1.00
2023-07-04T12:51:57.667Z,1.00
2023-07-04T12:53:02.391Z,1.00
2023-07-04T12:54:09.338Z,1.00
2023-07-04T12:55:37.047Z,1.00
2023-07-04T12:56:45.872Z,1.00
2023-07-04T12:57:50.868Z,1.00
2023-07-04T12:58:53.851Z,1.00
2023-07-04T13:00:31.630Z,1.00
2023-07-04T13:01:36.720Z,1.00
2023-07-04T13:02:40.113Z,1.00
2023-07-04T13:03:45.266Z,1.00
2023-07-04T13:04:48.385Z,1.00
2023-07-04T13:05:53.792Z,1.00
2023-07-04T13:06:57.582Z,1.00
2023-07-04T13:08:00.605Z,1.00
2023-07-04T13:09:07.066Z,1.00
2023-07-04T13:10:11.789Z,1.00
2023-07-04T13:11:14.835Z,1.00
2023-07-04T13:12:30.550Z,1.00
2023-07-04T13:13:47.222Z,1.00
2023-07-04T13:14:50.249Z,1.00
2023-07-04T13:16:19.662Z,1.00
2023-07-04T13:17:23.470Z,1.00
2023-07-04T13:18:35.477Z,1.00
2023-07-04T13:19:45.181Z,1.00
2023-07-04T13:20:59.455Z,1.00
2023-07-04T13:22:15.654Z,1.00
2023-07-04T13:25:42.703Z,1.00
2023-07-04T13:26:47.501Z,1.00
2023-07-04T13:30:21.223Z,1.00
2023-07-04T13:30:38.936Z,1.00
2023-07-04T13:32:59.875Z,1.00
2023-07-04T13:34:23.429Z,1.00
2023-07-04T13:35:40.803Z,1.00
2023-07-04T13:36:53.244Z,1.00
2023-07-04T13:39:49.751Z,1.00
2023-07-04T13:40:28.164Z,1.00
2023-07-04T13:41:31.593Z,1.00
2023-07-04T13:42:34.576Z,1.00
2023-07-04T13:45:53.997Z,1.00
2023-07-04T13:46:56.992Z,1.00
2023-07-04T13:48:00.059Z,1.00
2023-07-04T13:49:03.090Z,1.00
2023-07-04T13:50:08.041Z,1.00
2023-07-04T13:51:11.521Z,1.00
2023-07-04T13:52:14.515Z,1.00
2023-07-04T13:53:17.538Z,1.00
2023-07-04T13:54:20.531Z,1.00
2023-07-04T13:55:23.594Z,1.00
2023-07-04T13:56:27.469Z,1.00
2023-07-04T13:57:30.427Z,1.00
2023-07-04T13:58:35.229Z,1.00
2023-07-04T13:59:38.207Z,1.00
2023-07-04T14:06:12.661Z,1.00
2023-07-04T14:07:15.785Z,1.00
2023-07-04T14:08:18.801Z,1.00
2023-07-04T14:09:23.029Z,1.00
2023-07-04T14:10:34.252Z,1.00
2023-07-04T14:11:37.831Z,1.00
2023-07-04T14:12:41.114Z,1.00
2023-07-04T14:13:44.846Z,1.00
2023-07-04T14:20:24.882Z,1.00
2023-07-04T14:21:28.021Z,1.00
2023-07-04T14:22:31.439Z,1.00
2023-07-04T14:23:34.977Z,1.00
2023-07-04T14:24:37.969Z,1.00
2023-07-04T14:25:40.950Z,1.00
2023-07-04T14:26:46.007Z,1.00
2023-07-04T14:27:48.989Z,1.00
2023-07-04T14:28:53.108Z,1.00
2023-07-04T14:29:56.693Z,1.00
2023-07-04T14:30:59.744Z,1.00
2023-07-04T14:32:02.931Z,1.00
2023-07-04T14:33:06.502Z,1.00
2023-07-04T14:34:09.524Z,1.00
2023-07-04T14:35:12.510Z,1.00
2023-07-04T14:36:15.520Z,1.00
2023-07-04T14:37:18.558Z,1.00
2023-07-04T14:38:21.559Z,1.00
2023-07-04T14:39:24.564Z,1.00
2023-07-04T14:42:48.555Z,1.00
2023-07-04T14:43:52.043Z,1.00
2023-07-04T14:44:55.030Z,1.00
2023-07-04T14:46:03.254Z,1.00
2023-07-04T14:47:06.948Z,1.00
2023-07-04T14:48:09.998Z,1.00
2023-07-04T14:49:13.408Z,1.00
2023-07-04T14:50:19.832Z,1.00
2023-07-04T14:51:22.840Z,1.00
2023-07-04T14:52:27.515Z,1.00
2023-07-04T14:53:30.524Z,1.00
2023-07-04T14:54:35.411Z,1.00
2023-07-04T14:55:38.400Z,1.00
2023-07-04T14:56:50.444Z,1.00
2023-07-04T14:57:55.357Z,1.00
2023-07-04T14:58:58.359Z,1.00
2023-07-04T15:00:01.359Z,1.00
2023-07-04T15:01:06.803Z,1.00
2023-07-04T15:02:10.129Z,1.00
2023-07-04T15:03:13.373Z,1.00
2023-07-04T15:04:16.502Z,1.00
2023-07-04T15:05:19.523Z,1.00
2023-07-04T15:06:23.761Z,1.00
2023-07-04T15:07:27.522Z,1.00
2023-07-04T15:08:30.853Z,1.00
2023-07-04T15:09:35.827Z,1.00
2023-07-04T15:10:38.833Z,1.00
2023-07-04T15:11:41.944Z,1.00
2023-07-04T15:12:44.948Z,1.00
2023-07-04T15:13:48.197Z,1.00
2023-07-04T15:14:51.241Z,1.00
2023-07-04T15:16:04.496Z,1.00
2023-07-04T15:17:08.219Z,1.00
2023-07-04T15:18:11.206Z,1.00
2023-07-04T15:19:14.611Z,1.00